sensor_id;sensor_type;location;lat;lon;timestamp;pressure;altitude;pressure_sealevel;temperature;humidity
28701;BME280;15877;52.344;16.790;2024-02-26T00:00:14;99630.11;;;8.06;72.41
28701;BME280;15877;52.344;16.790;2024-02-26T00:03:06;99631.20;;;8.05;71.31
28701;BME280;15877;52.344;16.790;2024-02-26T00:05:39;99629.44;;;8.04;71.41
28701;BME280;15877;52.344;16.790;2024-02-26T00:08:11;99627.66;;;8.02;70.65
28701;BME280;15877;52.344;16.790;2024-02-26T00:10:43;99630.05;;;7.99;70.06
28701;BME280;15877;52.344;16.790;2024-02-26T00:13:16;99635.40;;;7.98;70.22
28701;BME280;15877;52.344;16.790;2024-02-26T00:15:48;99629.61;;;7.96;71.45
28701;BME280;15877;52.344;16.790;2024-02-26T00:18:21;99626.79;;;7.93;70.23
28701;BME280;15877;52.344;16.790;2024-02-26T00:20:53;99626.90;;;7.91;69.40
28701;BME280;15877;52.344;16.790;2024-02-26T00:23:26;99631.56;;;7.87;69.52
28701;BME280;15877;52.344;16.790;2024-02-26T00:25:59;99615.12;;;7.75;68.70
28701;BME280;15877;52.344;16.790;2024-02-26T00:28:32;99630.95;;;7.80;68.50
28701;BME280;15877;52.344;16.790;2024-02-26T00:31:04;99644.27;;;7.79;68.78
28701;BME280;15877;52.344;16.790;2024-02-26T00:33:37;99638.73;;;7.71;70.50
28701;BME280;15877;52.344;16.790;2024-02-26T00:36:10;99640.89;;;7.68;71.14
28701;BME280;15877;52.344;16.790;2024-02-26T00:38:43;99644.61;;;7.61;71.49
28701;BME280;15877;52.344;16.790;2024-02-26T00:41:17;99637.59;;;7.54;72.41
28701;BME280;15877;52.344;16.790;2024-02-26T00:43:50;99620.41;;;7.48;72.15
28701;BME280;15877;52.344;16.790;2024-02-26T00:46:22;99637.39;;;7.56;71.99
28701;BME280;15877;52.344;16.790;2024-02-26T00:48:54;99637.50;;;7.57;71.59
28701;BME280;15877;52.344;16.790;2024-02-26T00:51:27;99637.10;;;7.57;72.68
28701;BME280;15877;52.344;16.790;2024-02-26T00:53:59;99643.48;;;7.56;72.81
28701;BME280;15877;52.344;16.790;2024-02-26T00:56:32;99632.63;;;7.51;72.46
28701;BME280;15877;52.344;16.790;2024-02-26T00:59:04;99631.29;;;7.52;73.02
28701;BME280;15877;52.344;16.790;2024-02-26T01:01:36;99637.88;;;7.53;72.71
28701;BME280;15877;52.344;16.790;2024-02-26T01:04:08;99630.29;;;7.41;74.11
28701;BME280;15877;52.344;16.790;2024-02-26T01:06:40;99631.15;;;7.48;73.49
28701;BME280;15877;52.344;16.790;2024-02-26T01:09:13;99626.16;;;7.52;73.08
28701;BME280;15877;52.344;16.790;2024-02-26T01:11:48;99629.56;;;7.52;72.44
28701;BME280;15877;52.344;16.790;2024-02-26T01:14:20;99630.87;;;7.54;72.40
28701;BME280;15877;52.344;16.790;2024-02-26T01:16:52;99636.65;;;7.54;72.62
28701;BME280;15877;52.344;16.790;2024-02-26T01:19:24;99634.88;;;7.50;72.07
28701;BME280;15877;52.344;16.790;2024-02-26T01:21:56;99638.63;;;7.48;71.71
28701;BME280;15877;52.344;16.790;2024-02-26T01:24:29;99632.02;;;7.41;71.06
28701;BME280;15877;52.344;16.790;2024-02-26T01:27:02;99630.77;;;7.41;71.20
28701;BME280;15877;52.344;16.790;2024-02-26T01:29:35;99634.71;;;7.41;70.22
28701;BME280;15877;52.344;16.790;2024-02-26T01:32:07;99635.77;;;7.35;69.58
28701;BME280;15877;52.344;16.790;2024-02-26T01:34:39;99626.95;;;7.29;69.54
28701;BME280;15877;52.344;16.790;2024-02-26T01:37:11;99625.38;;;7.26;69.91
28701;BME280;15877;52.344;16.790;2024-02-26T01:39:44;99624.48;;;7.24;69.74
28701;BME280;15877;52.344;16.790;2024-02-26T01:42:16;99623.46;;;7.24;69.18
28701;BME280;15877;52.344;16.790;2024-02-26T01:44:48;99618.98;;;7.18;68.85
28701;BME280;15877;52.344;16.790;2024-02-26T01:47:21;99621.05;;;7.15;68.92
28701;BME280;15877;52.344;16.790;2024-02-26T01:49:53;99625.66;;;7.14;68.42
28701;BME280;15877;52.344;16.790;2024-02-26T01:52:25;99624.03;;;7.11;68.22
28701;BME280;15877;52.344;16.790;2024-02-26T01:54:58;99621.20;;;7.09;68.11
28701;BME280;15877;52.344;16.790;2024-02-26T01:57:31;99617.55;;;7.01;68.20
28701;BME280;15877;52.344;16.790;2024-02-26T02:00:05;99626.49;;;7.02;68.44
28701;BME280;15877;52.344;16.790;2024-02-26T02:02:39;99627.04;;;6.98;68.51
28701;BME280;15877;52.344;16.790;2024-02-26T02:05:15;99623.83;;;6.95;68.43
28701;BME280;15877;52.344;16.790;2024-02-26T02:07:49;99626.00;;;6.94;68.05
28701;BME280;15877;52.344;16.790;2024-02-26T02:10:22;99625.95;;;6.92;67.72
28701;BME280;15877;52.344;16.790;2024-02-26T02:12:56;99633.16;;;6.90;67.57
28701;BME280;15877;52.344;16.790;2024-02-26T02:15:31;99635.08;;;6.87;67.80
28701;BME280;15877;52.344;16.790;2024-02-26T02:18:04;99630.46;;;6.86;68.04
28701;BME280;15877;52.344;16.790;2024-02-26T02:20:37;99633.02;;;6.84;67.56
28701;BME280;15877;52.344;16.790;2024-02-26T02:23:10;99631.96;;;6.80;67.88
28701;BME280;15877;52.344;16.790;2024-02-26T02:25:43;99610.02;;;6.69;68.11
28701;BME280;15877;52.344;16.790;2024-02-26T02:28:15;99619.80;;;6.76;68.27
28701;BME280;15877;52.344;16.790;2024-02-26T02:30:47;99615.31;;;6.73;68.34
28701;BME280;15877;52.344;16.790;2024-02-26T02:33:20;99615.66;;;6.68;68.37
28701;BME280;15877;52.344;16.790;2024-02-26T02:35:54;99602.95;;;6.57;68.46
28701;BME280;15877;52.344;16.790;2024-02-26T02:38:26;99618.80;;;6.64;68.70
28701;BME280;15877;52.344;16.790;2024-02-26T02:41:00;99619.70;;;6.62;68.69
28701;BME280;15877;52.344;16.790;2024-02-26T02:43:33;99616.42;;;6.57;69.21
28701;BME280;15877;52.344;16.790;2024-02-26T02:46:06;99616.84;;;6.58;69.31
28701;BME280;15877;52.344;16.790;2024-02-26T02:48:41;99619.60;;;6.58;69.31
28701;BME280;15877;52.344;16.790;2024-02-26T02:51:13;99618.91;;;6.56;69.39
28701;BME280;15877;52.344;16.790;2024-02-26T02:53:48;99611.56;;;6.56;69.56
28701;BME280;15877;52.344;16.790;2024-02-26T02:56:20;99608.48;;;6.55;70.31
28701;BME280;15877;52.344;16.790;2024-02-26T02:58:52;99607.86;;;6.56;70.51
28701;BME280;15877;52.344;16.790;2024-02-26T03:01:24;99610.27;;;6.57;70.94
28701;BME280;15877;52.344;16.790;2024-02-26T03:03:56;99605.45;;;6.60;71.07
28701;BME280;15877;52.344;16.790;2024-02-26T03:06:29;99599.02;;;6.61;71.24
28701;BME280;15877;52.344;16.790;2024-02-26T03:09:01;99595.01;;;6.62;71.31
28701;BME280;15877;52.344;16.790;2024-02-26T03:11:34;99592.76;;;6.63;71.43
28701;BME280;15877;52.344;16.790;2024-02-26T03:14:06;99591.20;;;6.64;71.59
28701;BME280;15877;52.344;16.790;2024-02-26T03:16:40;99595.76;;;6.66;71.97
28701;BME280;15877;52.344;16.790;2024-02-26T03:19:15;99595.30;;;6.67;72.08
28701;BME280;15877;52.344;16.790;2024-02-26T03:21:48;99586.33;;;6.61;72.31
28701;BME280;15877;52.344;16.790;2024-02-26T03:24:20;99600.90;;;6.70;72.52
28701;BME280;15877;52.344;16.790;2024-02-26T03:26:52;99567.79;;;6.54;72.63
28701;BME280;15877;52.344;16.790;2024-02-26T03:29:24;99594.10;;;6.73;72.63
28701;BME280;15877;52.344;16.790;2024-02-26T03:31:57;99596.40;;;6.74;72.81
28701;BME280;15877;52.344;16.790;2024-02-26T03:34:29;99595.57;;;6.75;72.97
28701;BME280;15877;52.344;16.790;2024-02-26T03:37:02;99594.04;;;6.77;72.60
28701;BME280;15877;52.344;16.790;2024-02-26T03:39:34;99580.84;;;6.69;72.43
28701;BME280;15877;52.344;16.790;2024-02-26T03:42:08;99598.34;;;6.76;72.76
28701;BME280;15877;52.344;16.790;2024-02-26T03:44:41;99597.18;;;6.77;72.74
28701;BME280;15877;52.344;16.790;2024-02-26T03:47:13;99599.70;;;6.73;72.90
28701;BME280;15877;52.344;16.790;2024-02-26T03:49:45;99599.38;;;6.76;72.60
28701;BME280;15877;52.344;16.790;2024-02-26T03:52:18;99598.65;;;6.75;72.23
28701;BME280;15877;52.344;16.790;2024-02-26T03:54:50;99596.92;;;6.72;72.21
28701;BME280;15877;52.344;16.790;2024-02-26T03:57:23;99599.80;;;6.70;72.12
28701;BME280;15877;52.344;16.790;2024-02-26T03:59:55;99603.60;;;6.68;72.04
28701;BME280;15877;52.344;16.790;2024-02-26T04:02:29;99609.92;;;6.69;71.71
28701;BME280;15877;52.344;16.790;2024-02-26T04:05:01;99609.48;;;6.70;71.61
28701;BME280;15877;52.344;16.790;2024-02-26T04:07:34;99602.68;;;6.69;71.66
28701;BME280;15877;52.344;16.790;2024-02-26T04:10:10;99610.36;;;6.67;71.69
28701;BME280;15877;52.344;16.790;2024-02-26T04:12:42;99608.65;;;6.65;71.73
28701;BME280;15877;52.344;16.790;2024-02-26T04:15:15;99613.51;;;6.63;71.77
28701;BME280;15877;52.344;16.790;2024-02-26T04:17:48;99610.63;;;6.62;71.61
28701;BME280;15877;52.344;16.790;2024-02-26T04:20:20;99614.48;;;6.65;71.52
28701;BME280;15877;52.344;16.790;2024-02-26T04:22:52;99615.10;;;6.64;71.64
28701;BME280;15877;52.344;16.790;2024-02-26T04:25:24;99612.48;;;6.63;71.81
28701;BME280;15877;52.344;16.790;2024-02-26T04:28:01;99616.36;;;6.64;71.69
28701;BME280;15877;52.344;16.790;2024-02-26T04:30:33;99609.68;;;6.65;71.99
28701;BME280;15877;52.344;16.790;2024-02-26T04:33:06;99610.99;;;6.63;72.07
28701;BME280;15877;52.344;16.790;2024-02-26T04:35:38;99596.80;;;6.54;72.19
28701;BME280;15877;52.344;16.790;2024-02-26T04:38:10;99613.33;;;6.62;72.11
28701;BME280;15877;52.344;16.790;2024-02-26T04:40:43;99617.56;;;6.62;72.15
28701;BME280;15877;52.344;16.790;2024-02-26T04:43:16;99619.45;;;6.61;72.00
28701;BME280;15877;52.344;16.790;2024-02-26T04:45:50;99621.98;;;6.62;71.63
28701;BME280;15877;52.344;16.790;2024-02-26T04:48:23;99623.70;;;6.61;71.49
28701;BME280;15877;52.344;16.790;2024-02-26T04:50:57;99621.41;;;6.61;71.28
28701;BME280;15877;52.344;16.790;2024-02-26T04:53:31;99621.96;;;6.58;71.23
28701;BME280;15877;52.344;16.790;2024-02-26T04:56:04;99625.16;;;6.57;71.16
28701;BME280;15877;52.344;16.790;2024-02-26T04:58:36;99623.91;;;6.57;70.97
28701;BME280;15877;52.344;16.790;2024-02-26T05:01:08;99620.27;;;6.53;70.98
28701;BME280;15877;52.344;16.790;2024-02-26T05:03:41;99618.94;;;6.51;70.87
28701;BME280;15877;52.344;16.790;2024-02-26T05:06:19;99618.23;;;6.50;70.95
28701;BME280;15877;52.344;16.790;2024-02-26T05:08:53;99613.20;;;6.48;71.03
28701;BME280;15877;52.344;16.790;2024-02-26T05:11:25;99613.98;;;6.45;71.10
28701;BME280;15877;52.344;16.790;2024-02-26T05:14:01;99614.13;;;6.44;71.14
28701;BME280;15877;52.344;16.790;2024-02-26T05:16:33;99613.81;;;6.44;70.88
28701;BME280;15877;52.344;16.790;2024-02-26T05:19:05;99616.80;;;6.40;70.88
28701;BME280;15877;52.344;16.790;2024-02-26T05:21:40;99625.21;;;6.40;70.94
28701;BME280;15877;52.344;16.790;2024-02-26T05:24:15;99634.84;;;6.41;70.88
28701;BME280;15877;52.344;16.790;2024-02-26T05:26:49;99638.31;;;6.41;70.88
28701;BME280;15877;52.344;16.790;2024-02-26T05:29:21;99641.85;;;6.40;70.89
28701;BME280;15877;52.344;16.790;2024-02-26T05:31:54;99647.83;;;6.39;70.87
28701;BME280;15877;52.344;16.790;2024-02-26T05:34:26;99639.64;;;6.38;70.79
28701;BME280;15877;52.344;16.790;2024-02-26T05:37:01;99640.13;;;6.35;71.04
28701;BME280;15877;52.344;16.790;2024-02-26T05:39:34;99637.30;;;6.32;70.85
28701;BME280;15877;52.344;16.790;2024-02-26T05:42:06;99651.63;;;6.37;70.88
28701;BME280;15877;52.344;16.790;2024-02-26T05:44:40;99651.48;;;6.38;70.91
28701;BME280;15877;52.344;16.790;2024-02-26T05:47:12;99653.01;;;6.36;70.89
28701;BME280;15877;52.344;16.790;2024-02-26T05:49:45;99649.27;;;6.35;70.96
28701;BME280;15877;52.344;16.790;2024-02-26T05:52:17;99648.48;;;6.34;71.09
28701;BME280;15877;52.344;16.790;2024-02-26T05:54:49;99645.02;;;6.32;71.01
28701;BME280;15877;52.344;16.790;2024-02-26T05:57:23;99649.24;;;6.31;71.34
28701;BME280;15877;52.344;16.790;2024-02-26T05:59:55;99654.73;;;6.30;71.26
28701;BME280;15877;52.344;16.790;2024-02-26T06:02:28;99654.92;;;6.28;71.28
28701;BME280;15877;52.344;16.790;2024-02-26T06:05:00;99654.59;;;6.27;71.29
28701;BME280;15877;52.344;16.790;2024-02-26T06:07:34;99652.77;;;6.27;71.37
28701;BME280;15877;52.344;16.790;2024-02-26T06:10:08;99654.80;;;6.29;71.11
28701;BME280;15877;52.344;16.790;2024-02-26T06:12:41;99651.58;;;6.27;71.29
28701;BME280;15877;52.344;16.790;2024-02-26T06:15:14;99649.95;;;6.27;71.18
28701;BME280;15877;52.344;16.790;2024-02-26T06:17:48;99649.92;;;6.29;71.03
28701;BME280;15877;52.344;16.790;2024-02-26T06:20:21;99645.33;;;6.28;71.15
28701;BME280;15877;52.344;16.790;2024-02-26T06:22:53;99633.89;;;6.19;71.09
28701;BME280;15877;52.344;16.790;2024-02-26T06:25:26;99650.21;;;6.28;70.87
28701;BME280;15877;52.344;16.790;2024-02-26T06:27:58;99649.85;;;6.30;70.95
28701;BME280;15877;52.344;16.790;2024-02-26T06:30:31;99639.86;;;6.21;71.03
28701;BME280;15877;52.344;16.790;2024-02-26T06:33:04;99655.84;;;6.33;70.93
28701;BME280;15877;52.344;16.790;2024-02-26T06:35:36;99661.30;;;6.34;71.23
28701;BME280;15877;52.344;16.790;2024-02-26T06:38:09;99661.67;;;6.35;71.26
28701;BME280;15877;52.344;16.790;2024-02-26T06:40:45;99660.56;;;6.35;71.26
28701;BME280;15877;52.344;16.790;2024-02-26T06:43:17;99661.98;;;6.38;71.50
28701;BME280;15877;52.344;16.790;2024-02-26T06:45:49;99666.34;;;6.42;71.50
28701;BME280;15877;52.344;16.790;2024-02-26T06:48:22;99670.48;;;6.41;71.68
28701;BME280;15877;52.344;16.790;2024-02-26T06:50:54;99659.61;;;6.35;71.91
28701;BME280;15877;52.344;16.790;2024-02-26T06:53:27;99664.00;;;6.40;71.99
28701;BME280;15877;52.344;16.790;2024-02-26T06:56:00;99674.15;;;6.52;72.08
28701;BME280;15877;52.344;16.790;2024-02-26T06:58:32;99673.40;;;6.53;72.11
28701;BME280;15877;52.344;16.790;2024-02-26T07:01:07;99673.12;;;6.57;72.27
28701;BME280;15877;52.344;16.790;2024-02-26T07:03:41;99674.53;;;6.60;72.52
28701;BME280;15877;52.344;16.790;2024-02-26T07:06:13;99674.51;;;6.63;72.87
28701;BME280;15877;52.344;16.790;2024-02-26T07:08:45;99680.14;;;6.67;73.07
28701;BME280;15877;52.344;16.790;2024-02-26T07:11:17;99664.69;;;6.60;73.36
28701;BME280;15877;52.344;16.790;2024-02-26T07:13:50;99674.27;;;6.72;73.63
28701;BME280;15877;52.344;16.790;2024-02-26T07:16:22;99674.02;;;6.75;73.82
28701;BME280;15877;52.344;16.790;2024-02-26T07:18:54;99672.45;;;6.78;73.83
28701;BME280;15877;52.344;16.790;2024-02-26T07:21:27;99669.33;;;6.79;74.10
28701;BME280;15877;52.344;16.790;2024-02-26T07:23:59;99666.19;;;6.79;74.68
28701;BME280;15877;52.344;16.790;2024-02-26T07:26:32;99668.38;;;6.82;74.85
28701;BME280;15877;52.344;16.790;2024-02-26T07:29:04;99669.84;;;6.87;74.81
28701;BME280;15877;52.344;16.790;2024-02-26T07:31:36;99666.29;;;6.90;74.99
28701;BME280;15877;52.344;16.790;2024-02-26T07:34:08;99666.09;;;6.92;75.12
28701;BME280;15877;52.344;16.790;2024-02-26T07:36:41;99665.27;;;6.97;75.36
28701;BME280;15877;52.344;16.790;2024-02-26T07:39:13;99664.20;;;6.98;76.00
28701;BME280;15877;52.344;16.790;2024-02-26T07:41:45;99666.70;;;7.01;76.47
28701;BME280;15877;52.344;16.790;2024-02-26T07:44:20;99667.92;;;7.06;76.80
28701;BME280;15877;52.344;16.790;2024-02-26T07:46:52;99670.66;;;7.14;76.97
28701;BME280;15877;52.344;16.790;2024-02-26T07:49:24;99668.86;;;7.19;77.10
28701;BME280;15877;52.344;16.790;2024-02-26T07:51:57;99673.61;;;7.23;77.49
28701;BME280;15877;52.344;16.790;2024-02-26T07:54:29;99679.20;;;7.29;77.96
28701;BME280;15877;52.344;16.790;2024-02-26T07:57:01;99689.30;;;7.35;78.29
28701;BME280;15877;52.344;16.790;2024-02-26T07:59:36;99693.45;;;7.41;78.53
28701;BME280;15877;52.344;16.790;2024-02-26T08:02:08;99696.64;;;7.50;78.99
28701;BME280;15877;52.344;16.790;2024-02-26T08:04:40;99696.63;;;7.53;79.68
28701;BME280;15877;52.344;16.790;2024-02-26T08:07:13;99701.30;;;7.57;80.14
28701;BME280;15877;52.344;16.790;2024-02-26T08:09:47;99702.16;;;7.60;80.98
28701;BME280;15877;52.344;16.790;2024-02-26T08:12:19;99699.85;;;7.66;81.25
28701;BME280;15877;52.344;16.790;2024-02-26T08:14:52;99696.86;;;7.71;81.59
28701;BME280;15877;52.344;16.790;2024-02-26T08:17:24;99696.89;;;7.72;82.51
28701;BME280;15877;52.344;16.790;2024-02-26T08:19:56;99692.17;;;7.81;82.79
28701;BME280;15877;52.344;16.790;2024-02-26T08:22:28;99691.98;;;7.90;82.77
28701;BME280;15877;52.344;16.790;2024-02-26T08:25:00;99692.81;;;7.92;83.73
28701;BME280;15877;52.344;16.790;2024-02-26T08:27:37;99692.77;;;8.01;83.70
28701;BME280;15877;52.344;16.790;2024-02-26T08:30:11;99697.39;;;8.12;83.47
28701;BME280;15877;52.344;16.790;2024-02-26T08:32:44;99699.54;;;8.20;84.23
28701;BME280;15877;52.344;16.790;2024-02-26T08:35:21;99691.64;;;8.35;82.87
28701;BME280;15877;52.344;16.790;2024-02-26T08:37:53;99693.50;;;8.41;84.32
28701;BME280;15877;52.344;16.790;2024-02-26T08:40:25;99695.08;;;8.54;83.16
28701;BME280;15877;52.344;16.790;2024-02-26T08:42:57;99699.77;;;8.64;83.59
28701;BME280;15877;52.344;16.790;2024-02-26T08:45:29;99702.39;;;8.73;83.72
28701;BME280;15877;52.344;16.790;2024-02-26T08:48:02;99700.22;;;8.81;84.00
28701;BME280;15877;52.344;16.790;2024-02-26T08:50:34;99699.67;;;8.90;83.72
28701;BME280;15877;52.344;16.790;2024-02-26T08:53:07;99688.39;;;8.83;84.39
28701;BME280;15877;52.344;16.790;2024-02-26T08:55:39;99703.64;;;8.96;85.28
28701;BME280;15877;52.344;16.790;2024-02-26T08:58:11;99705.42;;;9.07;85.11
28701;BME280;15877;52.344;16.790;2024-02-26T09:00:43;99706.59;;;9.21;83.65
28701;BME280;15877;52.344;16.790;2024-02-26T09:03:15;99701.20;;;9.25;84.68
28701;BME280;15877;52.344;16.790;2024-02-26T09:05:48;99702.80;;;9.31;85.08
28701;BME280;15877;52.344;16.790;2024-02-26T09:08:20;99709.48;;;9.34;85.64
28701;BME280;15877;52.344;16.790;2024-02-26T09:10:52;99706.83;;;9.41;85.43
28701;BME280;15877;52.344;16.790;2024-02-26T09:13:24;99704.86;;;9.59;84.32
28701;BME280;15877;52.344;16.790;2024-02-26T09:15:57;99701.95;;;9.72;83.69
28701;BME280;15877;52.344;16.790;2024-02-26T09:18:29;99688.40;;;9.72;83.84
28701;BME280;15877;52.344;16.790;2024-02-26T09:21:05;99699.38;;;9.87;84.96
28701;BME280;15877;52.344;16.790;2024-02-26T09:23:38;99698.26;;;9.99;83.69
28701;BME280;15877;52.344;16.790;2024-02-26T09:26:10;99692.20;;;10.08;83.03
28701;BME280;15877;52.344;16.790;2024-02-26T09:28:42;99700.00;;;10.16;83.48
28701;BME280;15877;52.344;16.790;2024-02-26T09:31:17;99697.58;;;10.26;83.36
28701;BME280;15877;52.344;16.790;2024-02-26T09:33:49;99699.96;;;10.40;82.12
28701;BME280;15877;52.344;16.790;2024-02-26T09:36:21;99704.71;;;10.46;82.54
28701;BME280;15877;52.344;16.790;2024-02-26T09:38:53;99702.11;;;10.56;82.12
28701;BME280;15877;52.344;16.790;2024-02-26T09:41:31;99698.06;;;10.63;82.45
28701;BME280;15877;52.344;16.790;2024-02-26T09:44:05;99699.96;;;10.62;82.95
28701;BME280;15877;52.344;16.790;2024-02-26T09:46:38;99693.96;;;10.58;83.34
28701;BME280;15877;52.344;16.790;2024-02-26T09:49:12;99700.17;;;10.68;83.07
28701;BME280;15877;52.344;16.790;2024-02-26T09:51:46;99709.60;;;10.83;81.46
28701;BME280;15877;52.344;16.790;2024-02-26T09:54:19;99708.75;;;10.94;80.71
28701;BME280;15877;52.344;16.790;2024-02-26T09:56:54;99704.38;;;11.11;80.51
28701;BME280;15877;52.344;16.790;2024-02-26T09:59:40;99703.70;;;11.16;80.22
28701;BME280;15877;52.344;16.790;2024-02-26T10:02:15;99707.31;;;11.33;79.77
28701;BME280;15877;52.344;16.790;2024-02-26T10:04:48;99700.39;;;11.30;79.29
28701;BME280;15877;52.344;16.790;2024-02-26T10:07:20;99693.23;;;11.40;78.79
28701;BME280;15877;52.344;16.790;2024-02-26T10:09:53;99694.05;;;11.58;78.50
28701;BME280;15877;52.344;16.790;2024-02-26T10:12:25;99694.61;;;11.67;78.33
28701;BME280;15877;52.344;16.790;2024-02-26T10:14:59;99698.54;;;11.72;77.87
28701;BME280;15877;52.344;16.790;2024-02-26T10:17:32;99701.34;;;11.75;77.70
28701;BME280;15877;52.344;16.790;2024-02-26T10:20:14;99705.15;;;11.89;76.99
28701;BME280;15877;52.344;16.790;2024-02-26T10:22:49;99700.31;;;11.92;76.61
28701;BME280;15877;52.344;16.790;2024-02-26T10:25:21;99699.16;;;11.98;76.37
28701;BME280;15877;52.344;16.790;2024-02-26T10:27:54;99703.49;;;12.12;75.69
28701;BME280;15877;52.344;16.790;2024-02-26T10:30:27;99708.39;;;12.21;75.37
28701;BME280;15877;52.344;16.790;2024-02-26T10:33:00;99699.67;;;12.33;75.35
28701;BME280;15877;52.344;16.790;2024-02-26T10:35:32;99699.77;;;12.39;75.15
28701;BME280;15877;52.344;16.790;2024-02-26T10:38:06;99698.61;;;12.47;74.27
28701;BME280;15877;52.344;16.790;2024-02-26T10:40:39;99700.69;;;12.48;74.08
28701;BME280;15877;52.344;16.790;2024-02-26T10:43:11;99704.68;;;12.60;73.76
28701;BME280;15877;52.344;16.790;2024-02-26T10:45:44;99688.45;;;12.60;73.62
28701;BME280;15877;52.344;16.790;2024-02-26T10:48:18;99701.20;;;12.70;73.56
28701;BME280;15877;52.344;16.790;2024-02-26T10:50:51;99704.01;;;12.74;73.50
28701;BME280;15877;52.344;16.790;2024-02-26T10:53:24;99699.71;;;12.90;73.35
28701;BME280;15877;52.344;16.790;2024-02-26T10:56:02;99704.11;;;12.99;73.08
28701;BME280;15877;52.344;16.790;2024-02-26T10:58:36;99704.45;;;13.07;72.46
28701;BME280;15877;52.344;16.790;2024-02-26T11:01:08;99698.55;;;13.09;72.35
28701;BME280;15877;52.344;16.790;2024-02-26T11:03:42;99700.08;;;13.24;72.47
28701;BME280;15877;52.344;16.790;2024-02-26T11:06:15;99703.27;;;13.31;71.44
28701;BME280;15877;52.344;16.790;2024-02-26T11:08:50;99699.67;;;13.29;70.28
28701;BME280;15877;52.344;16.790;2024-02-26T11:11:23;99701.73;;;13.39;70.01
28701;BME280;15877;52.344;16.790;2024-02-26T11:13:55;99695.11;;;13.50;70.36
28701;BME280;15877;52.344;16.790;2024-02-26T11:16:28;99684.05;;;13.40;71.09
28701;BME280;15877;52.344;16.790;2024-02-26T11:19:02;99696.61;;;13.56;71.02
28701;BME280;15877;52.344;16.790;2024-02-26T11:21:34;99692.20;;;13.63;70.91
28701;BME280;15877;52.344;16.790;2024-02-26T11:24:13;99687.17;;;13.69;71.18
28701;BME280;15877;52.344;16.790;2024-02-26T11:26:48;99691.54;;;13.77;70.96
28701;BME280;15877;52.344;16.790;2024-02-26T11:29:39;99690.47;;;13.86;70.18
28701;BME280;15877;52.344;16.790;2024-02-26T11:32:13;99692.28;;;13.90;69.58
28701;BME280;15877;52.344;16.790;2024-02-26T11:34:46;99690.20;;;13.95;69.41
28701;BME280;15877;52.344;16.790;2024-02-26T11:37:20;99690.59;;;13.98;69.56
28701;BME280;15877;52.344;16.790;2024-02-26T11:39:53;99690.33;;;14.03;69.69
28701;BME280;15877;52.344;16.790;2024-02-26T11:42:26;99675.30;;;14.07;68.91
28701;BME280;15877;52.344;16.790;2024-02-26T11:44:59;99685.55;;;14.18;67.23
28701;BME280;15877;52.344;16.790;2024-02-26T11:47:36;99688.25;;;14.26;67.97
28701;BME280;15877;52.344;16.790;2024-02-26T11:50:34;99687.98;;;14.33;68.56
28701;BME280;15877;52.344;16.790;2024-02-26T11:53:25;99688.38;;;14.33;68.85
28701;BME280;15877;52.344;16.790;2024-02-26T11:56:29;99688.11;;;14.40;67.47
28701;BME280;15877;52.344;16.790;2024-02-26T11:59:04;99688.16;;;14.46;67.25
28701;BME280;15877;52.344;16.790;2024-02-26T12:01:45;99686.64;;;14.47;65.47
28701;BME280;15877;52.344;16.790;2024-02-26T12:04:21;99687.27;;;14.50;65.61
28701;BME280;15877;52.344;16.790;2024-02-26T12:07:00;99684.30;;;14.51;66.20
28701;BME280;15877;52.344;16.790;2024-02-26T12:09:40;99689.91;;;14.59;66.45
28701;BME280;15877;52.344;16.790;2024-02-26T12:12:18;99689.39;;;14.65;66.28
28701;BME280;15877;52.344;16.790;2024-02-26T12:14:55;99683.23;;;14.68;66.86
28701;BME280;15877;52.344;16.790;2024-02-26T12:17:28;99683.70;;;14.71;66.66
28701;BME280;15877;52.344;16.790;2024-02-26T12:20:11;99690.02;;;14.69;64.71
28701;BME280;15877;52.344;16.790;2024-02-26T12:22:46;99686.52;;;14.68;64.30
28701;BME280;15877;52.344;16.790;2024-02-26T12:25:21;99688.28;;;14.65;63.89
28701;BME280;15877;52.344;16.790;2024-02-26T12:27:52;99690.64;;;14.58;63.04
28701;BME280;15877;52.344;16.790;2024-02-26T12:30:25;99688.61;;;14.64;63.23
28701;BME280;15877;52.344;16.790;2024-02-26T12:33:04;99687.89;;;14.66;63.80
28701;BME280;15877;52.344;16.790;2024-02-26T12:35:39;99695.73;;;14.64;64.15
28701;BME280;15877;52.344;16.790;2024-02-26T12:38:11;99690.34;;;14.68;64.53
28701;BME280;15877;52.344;16.790;2024-02-26T12:40:44;99689.59;;;14.95;68.02
28701;BME280;15877;52.344;16.790;2024-02-26T12:43:17;99686.23;;;15.36;69.82
28701;BME280;15877;52.344;16.790;2024-02-26T12:45:49;99684.88;;;15.52;67.85
28701;BME280;15877;52.344;16.790;2024-02-26T12:48:21;99684.30;;;15.54;65.97
28701;BME280;15877;52.344;16.790;2024-02-26T12:50:55;99684.55;;;15.54;64.96
28701;BME280;15877;52.344;16.790;2024-02-26T12:53:27;99685.36;;;15.53;64.48
28701;BME280;15877;52.344;16.790;2024-02-26T12:56:00;99687.91;;;15.70;63.88
28701;BME280;15877;52.344;16.790;2024-02-26T12:58:35;99686.44;;;15.64;63.89
28701;BME280;15877;52.344;16.790;2024-02-26T13:01:30;99684.70;;;15.62;65.25
28701;BME280;15877;52.344;16.790;2024-02-26T13:04:10;99685.52;;;15.62;64.71
28701;BME280;15877;52.344;16.790;2024-02-26T13:06:47;99685.69;;;15.66;64.71
28701;BME280;15877;52.344;16.790;2024-02-26T13:09:20;99689.29;;;15.67;64.75
28701;BME280;15877;52.344;16.790;2024-02-26T13:11:56;99693.34;;;15.69;64.84
28701;BME280;15877;52.344;16.790;2024-02-26T13:14:30;99701.04;;;15.67;65.10
28701;BME280;15877;52.344;16.790;2024-02-26T13:17:03;99701.59;;;15.69;65.44
28701;BME280;15877;52.344;16.790;2024-02-26T13:19:35;99699.67;;;15.69;65.86
28701;BME280;15877;52.344;16.790;2024-02-26T13:22:10;99699.80;;;15.73;65.76
28701;BME280;15877;52.344;16.790;2024-02-26T13:24:43;99700.58;;;15.74;65.55
28701;BME280;15877;52.344;16.790;2024-02-26T13:27:22;99700.71;;;15.61;64.10
28701;BME280;15877;52.344;16.790;2024-02-26T13:30:09;99705.06;;;15.49;64.06